»·PEaware :: N149CD KVNY-KMYF

N149CD :: KVNY-KMYF

FLIGHT INFORMATION

Flight Status: Arrived
Operator: Privately registered:
United States
More flights under this callsign
Pilot: Nathan E. (30132)
Aircraft: CESSNA 172 SKYHAWK
(C172)
More flights by this aircraft type
Origin: KVNY Van Nuys
United States
Destination: KMYF Montgomery
United States
More flights between these airports :: More routes between these airports
Route: +ADAMM3 ADAMM V186 HAILE V66 MZB
File this flight plan on PilotEdge
Remarks: TEC route BURP29
Altitude:
(Current/Filed)
9,000ft
Speed:
(Current/Filed)
110kts
Departed: 19-Sep-20 12:13 PM
Arrived: 19-Sep-20 01:35 PM
Distance/Time
Traveled:
108nm/1:22
Distance/Time
To Go:
Arrived

Flight Plot

Page will automatically refresh every two minutes.

Flight plan parsing failed; only flown route is shown


Map Options




Map Legend


Flown Route
Filed Route
Departure Airport
Arrival Airport
Navaid (VOR, NDB)
Fix

Horizontal Profiles

Position Reports

Time Latitude Longitude Heading Altitude Ground
Speed
19-Sep-20 11:54 34.208083 -118.491765 90 806ft 0kts
19-Sep-20 11:55 34.208083 -118.491765 90 806ft 0kts
19-Sep-20 11:56 34.208083 -118.491765 90 806ft 0kts
19-Sep-20 11:57 34.208083 -118.491765 90 806ft 0kts
19-Sep-20 11:58 34.208083 -118.491765 90 806ft 0kts
19-Sep-20 11:59 34.208083 -118.491765 90 806ft 0kts
19-Sep-20 12:00 34.208083 -118.491765 90 806ft 0kts
19-Sep-20 12:01 34.208083 -118.491765 90 806ft 0kts
19-Sep-20 12:02 34.208083 -118.491765 90 806ft 0kts
19-Sep-20 12:03 34.209563 -118.491513 356 806ft 24kts
19-Sep-20 12:04 34.216255 -118.492230 355 806ft 22kts
19-Sep-20 12:05 34.219334 -118.492198 97 806ft 0kts
19-Sep-20 12:06 34.219332 -118.492186 107 806ft 0kts
19-Sep-20 12:07 34.219332 -118.492185 107 806ft 0kts
19-Sep-20 12:08 34.219332 -118.492185 107 806ft 0kts
19-Sep-20 12:09 34.219332 -118.492185 107 806ft 0kts
19-Sep-20 12:10 34.219332 -118.492185 107 806ft 0kts
19-Sep-20 12:11 34.219302 -118.492093 126 806ft 3kts
19-Sep-20 12:12 34.207297 -118.490233 176 985ft 81kts
19-Sep-20 12:13 34.185578 -118.487481 138 1780ft 79kts
19-Sep-20 12:14 34.171761 -118.466961 124 2559ft 80kts
19-Sep-20 12:15 34.157631 -118.445456 124 3305ft 83kts
19-Sep-20 12:16 34.143023 -118.423328 124 4010ft 86kts
19-Sep-20 12:17 34.127937 -118.400174 124 4685ft 89kts
19-Sep-20 12:18 34.111269 -118.373705 125 5024ft 119kts
19-Sep-20 12:19 34.104260 -118.336806 82 5018ft 117kts
19-Sep-20 12:20 34.106783 -118.297301 82 5019ft 118kts
19-Sep-20 12:21 34.109336 -118.257797 82 5022ft 118kts
19-Sep-20 12:22 34.111862 -118.218497 82 5026ft 118kts
19-Sep-20 12:23 34.114530 -118.178772 81 5029ft 118kts
19-Sep-20 12:24 34.114623 -118.140052 99 5190ft 108kts
19-Sep-20 12:25 34.105926 -118.106198 107 5685ft 104kts
19-Sep-20 12:26 34.095990 -118.072921 108 6187ft 105kts
19-Sep-20 12:27 34.086213 -118.040988 109 6776ft 97kts
19-Sep-20 12:28 34.076000 -118.007734 109 7044ft 123kts
19-Sep-20 12:29 34.063821 -117.968346 109 7038ft 125kts
19-Sep-20 12:30 34.051688 -117.928961 108 7037ft 125kts
19-Sep-20 12:31 34.039575 -117.889670 107 7036ft 125kts
19-Sep-20 12:32 34.027496 -117.850553 107 7035ft 124kts
19-Sep-20 12:33 34.015384 -117.811391 107 7032ft 124kts
19-Sep-20 12:34 34.003251 -117.772204 107 7030ft 124kts
19-Sep-20 12:35 33.990086 -117.733421 110 7028ft 125kts
19-Sep-20 12:36 33.976566 -117.694902 110 7027ft 125kts
19-Sep-20 12:37 33.962959 -117.656245 111 7027ft 125kts
19-Sep-20 12:38 33.949309 -117.617527 112 7028ft 125kts
19-Sep-20 12:39 33.935680 -117.578942 112 7029ft 125kts
19-Sep-20 12:40 33.922030 -117.540352 112 7029ft 125kts
19-Sep-20 12:41 33.900667 -117.516210 147 7733ft 97kts
19-Sep-20 12:42 33.878609 -117.496837 149 8236ft 98kts
19-Sep-20 12:43 33.856038 -117.477632 151 8711ft 99kts
19-Sep-20 12:44 33.832204 -117.457639 150 9043ft 115kts
19-Sep-20 12:45 33.804412 -117.434383 150 9050ft 114kts
19-Sep-20 12:46 33.780756 -117.414549 152 9046ft 99kts
19-Sep-20 12:47 33.757978 -117.395541 153 9052ft 102kts
19-Sep-20 12:48 33.734557 -117.375980 153 9054ft 103kts
19-Sep-20 12:49 33.710920 -117.356245 153 9057ft 103kts
19-Sep-20 12:51 33.687294 -117.336530 153 9054ft 102kts
19-Sep-20 12:52 33.663991 -117.317097 153 9055ft 102kts
19-Sep-20 12:53 33.640792 -117.297764 153 9055ft 101kts
19-Sep-20 12:54 33.617767 -117.278588 152 9055ft 100kts
19-Sep-20 12:55 33.594550 -117.259255 153 9041ft 103kts
19-Sep-20 12:56 33.570839 -117.239537 154 9034ft 104kts
19-Sep-20 12:57 33.546915 -117.219652 154 9027ft 105kts
19-Sep-20 12:58 33.522722 -117.199557 154 9020ft 106kts
19-Sep-20 12:59 33.498344 -117.179323 154 9014ft 107kts
19-Sep-20 13:00 33.473115 -117.161933 175 9008ft 101kts
19-Sep-20 13:01 33.445561 -117.155134 177 9001ft 101kts
19-Sep-20 13:02 33.417904 -117.148976 178 9000ft 101kts
19-Sep-20 13:03 33.390220 -117.143013 178 9001ft 101kts
19-Sep-20 13:04 33.362322 -117.137069 179 9003ft 102kts
19-Sep-20 13:05 33.335262 -117.124538 152 8836ft 118kts
19-Sep-20 13:06 33.308524 -117.100522 151 8331ft 120kts
19-Sep-20 13:07 33.281574 -117.076633 151 7827ft 122kts
19-Sep-20 13:07 33.258634 -117.056661 151 7406ft 122kts
19-Sep-20 13:08 33.230884 -117.032910 151 7022ft 120kts
19-Sep-20 13:10 33.199795 -117.006317 151 7025ft 117kts
19-Sep-20 13:11 33.173079 -116.983645 151 7029ft 118kts
19-Sep-20 13:11 33.149750 -116.967086 161 7032ft 116kts
19-Sep-20 13:12 33.120449 -116.950348 161 7034ft 117kts
19-Sep-20 13:13 33.090807 -116.933871 161 7037ft 117kts
19-Sep-20 13:14 33.061843 -116.918573 161 7040ft 117kts
19-Sep-20 13:15 33.031170 -116.903153 161 7042ft 116kts
19-Sep-20 13:16 33.001290 -116.888841 161 7048ft 114kts
19-Sep-20 13:17 32.971605 -116.875277 161 7055ft 114kts
19-Sep-20 13:18 32.941956 -116.862483 168 7050ft 112kts
19-Sep-20 13:19 32.908540 -116.858373 176 6572ft 120kts
19-Sep-20 13:20 32.875230 -116.854833 176 6071ft 120kts
19-Sep-20 13:21 32.843063 -116.851408 176 5754ft 118kts
19-Sep-20 13:22 32.809874 -116.847897 176 5256ft 120kts
19-Sep-20 13:23 32.776245 -116.847269 200 4758ft 124kts
19-Sep-20 13:24 32.746193 -116.866135 211 4234ft 118kts
19-Sep-20 13:25 32.723024 -116.889640 265 4059ft 114kts
19-Sep-20 13:26 32.732133 -116.926096 294 3628ft 114kts
19-Sep-20 13:27 32.745020 -116.960308 298 3449ft 115kts
19-Sep-20 13:28 32.759049 -116.994890 295 2953ft 118kts
19-Sep-20 13:29 32.773125 -117.030488 295 2337ft 120kts
19-Sep-20 13:30 32.786865 -117.065280 295 1704ft 113kts
19-Sep-20 13:31 32.799221 -117.096603 295 1139ft 88kts
19-Sep-20 13:32 32.808420 -117.119958 295 717ft 68kts
19-Sep-20 13:33 32.815829 -117.138770 294 420ft 41kts
19-Sep-20 13:34 32.815877 -117.140807 245 417ft 0kts
19-Sep-20 13:35 32.814807 -117.143521 244 414ft 17kts
19-Sep-20 13:36 32.812892 -117.144056 251 412ft 0kts

Navigation Log

Ident Type
Flight plan parsing failed, navigation log unavailable